KVCT/VCT METAR and TAF weather

Enter ICAO airport designator
Station Type Date Time Source
KVCT METAR 2020/01/26 18:51 UTC NOAA

KVCT 261851Z 29006KT 10SM CLR 23/16 A2997 RMK AO2 SLP145 T02330156


Station Type Date Time Source
KVCT Decoded METAR 2020/01/26 18:51 UTC NOAA

VICTORIA REGIONAL AIRPORT, TX, United States (KVCT) 28-52N 96-56W 31M
Jan 26, 2020 - 01:51 PM EST / 2020.01.26 1851 UTC
Wind: from the WNW (290 degrees) at 7 MPH (6 KT):0
Visibility: 10 mile(s):0
Sky conditions: clear
Temperature: 73.9 F (23.3 C)
Dew Point: 60.1 F (15.6 C)
Relative Humidity: 61%
Pressure (altimeter): 29.97 in. Hg (1014 hPa)
ob: KVCT 261851Z 29006KT 10SM CLR 23/16 A2997 RMK AO2 SLP145 T02330156
cycle: 19

Station Type Date Time Source
KVCT TAF 2020/01/26 18:24 UTC NOAA

TAF KVCT 261722Z 2618/2718 33011KT P6SM SKC
FM270600 VRB03KT 3SM BR FEW009
TEMPO 2709/2713 3/4SM BR BKN004
FM271400 09006KT P6SM FEW040

Example: see airport list